sensor_id;sensor_type;location;lat;lon;timestamp;temperature;humidity
65058;HTU21D;51644;51.068;5.860;2023-05-31T00:00:08;16.29;65.14
65058;HTU21D;51644;51.068;5.860;2023-05-31T00:01:07;16.28;65.18
65058;HTU21D;51644;51.068;5.860;2023-05-31T00:02:06;16.27;65.16
65058;HTU21D;51644;51.068;5.860;2023-05-31T00:03:06;16.26;65.25
65058;HTU21D;51644;51.068;5.860;2023-05-31T00:04:05;16.24;65.28
65058;HTU21D;51644;51.068;5.860;2023-05-31T00:05:05;16.21;65.41
65058;HTU21D;51644;51.068;5.860;2023-05-31T00:06:04;16.17;65.55
65058;HTU21D;51644;51.068;5.860;2023-05-31T00:07:04;16.15;65.56
65058;HTU21D;51644;51.068;5.860;2023-05-31T00:08:03;16.15;65.63
65058;HTU21D;51644;51.068;5.860;2023-05-31T00:09:02;16.14;65.65
65058;HTU21D;51644;51.068;5.860;2023-05-31T00:10:01;16.14;65.71
65058;HTU21D;51644;51.068;5.860;2023-05-31T00:11:00;16.12;65.78
65058;HTU21D;51644;51.068;5.860;2023-05-31T00:11:59;16.13;65.81
65058;HTU21D;51644;51.068;5.860;2023-05-31T00:12:58;16.10;65.86
65058;HTU21D;51644;51.068;5.860;2023-05-31T00:13:56;16.08;65.91
65058;HTU21D;51644;51.068;5.860;2023-05-31T00:14:55;16.08;65.96
65058;HTU21D;51644;51.068;5.860;2023-05-31T00:15:54;16.08;66.01
65058;HTU21D;51644;51.068;5.860;2023-05-31T00:16:53;16.07;66.04
65058;HTU21D;51644;51.068;5.860;2023-05-31T00:17:51;16.06;66.09
65058;HTU21D;51644;51.068;5.860;2023-05-31T00:18:50;16.07;66.09
65058;HTU21D;51644;51.068;5.860;2023-05-31T00:19:49;16.06;66.19
65058;HTU21D;51644;51.068;5.860;2023-05-31T00:20:47;16.04;66.21
65058;HTU21D;51644;51.068;5.860;2023-05-31T00:21:46;16.03;66.27
65058;HTU21D;51644;51.068;5.860;2023-05-31T00:22:48;16.01;66.30
65058;HTU21D;51644;51.068;5.860;2023-05-31T00:23:47;16.00;66.43
65058;HTU21D;51644;51.068;5.860;2023-05-31T00:24:46;15.99;66.43
65058;HTU21D;51644;51.068;5.860;2023-05-31T00:25:45;15.98;66.48
65058;HTU21D;51644;51.068;5.860;2023-05-31T00:26:43;15.97;66.56
65058;HTU21D;51644;51.068;5.860;2023-05-31T00:27:42;15.96;66.58
65058;HTU21D;51644;51.068;5.860;2023-05-31T00:28:41;15.95;66.68
65058;HTU21D;51644;51.068;5.860;2023-05-31T00:29:39;15.95;66.78
65058;HTU21D;51644;51.068;5.860;2023-05-31T00:30:38;15.92;66.82
65058;HTU21D;51644;51.068;5.860;2023-05-31T00:31:37;15.92;66.78
65058;HTU21D;51644;51.068;5.860;2023-05-31T00:32:36;15.92;66.81
65058;HTU21D;51644;51.068;5.860;2023-05-31T00:33:34;15.90;66.88
65058;HTU21D;51644;51.068;5.860;2023-05-31T00:34:33;15.89;66.96
65058;HTU21D;51644;51.068;5.860;2023-05-31T00:35:32;15.89;66.99
65058;HTU21D;51644;51.068;5.860;2023-05-31T00:36:30;15.88;66.99
65058;HTU21D;51644;51.068;5.860;2023-05-31T00:37:30;15.87;67.02
65058;HTU21D;51644;51.068;5.860;2023-05-31T00:38:34;15.86;67.09
65058;HTU21D;51644;51.068;5.860;2023-05-31T00:39:33;15.84;67.10
65058;HTU21D;51644;51.068;5.860;2023-05-31T00:40:32;15.83;67.17
65058;HTU21D;51644;51.068;5.860;2023-05-31T00:41:31;15.80;67.22
65058;HTU21D;51644;51.068;5.860;2023-05-31T00:42:30;15.78;67.29
65058;HTU21D;51644;51.068;5.860;2023-05-31T00:43:29;15.80;67.27
65058;HTU21D;51644;51.068;5.860;2023-05-31T00:44:33;15.76;67.36
65058;HTU21D;51644;51.068;5.860;2023-05-31T00:45:34;15.74;67.40
65058;HTU21D;51644;51.068;5.860;2023-05-31T00:46:35;15.74;67.43
65058;HTU21D;51644;51.068;5.860;2023-05-31T00:47:35;15.70;67.49
65058;HTU21D;51644;51.068;5.860;2023-05-31T00:48:34;15.69;67.59
65058;HTU21D;51644;51.068;5.860;2023-05-31T00:49:33;15.69;67.65
65058;HTU21D;51644;51.068;5.860;2023-05-31T00:50:32;15.68;67.75
65058;HTU21D;51644;51.068;5.860;2023-05-31T00:51:32;15.68;67.72
65058;HTU21D;51644;51.068;5.860;2023-05-31T00:52:33;15.67;67.73
65058;HTU21D;51644;51.068;5.860;2023-05-31T00:53:33;15.65;67.73
65058;HTU21D;51644;51.068;5.860;2023-05-31T00:54:37;15.63;67.81
65058;HTU21D;51644;51.068;5.860;2023-05-31T00:55:37;15.62;67.91
65058;HTU21D;51644;51.068;5.860;2023-05-31T00:56:37;15.61;67.92
65058;HTU21D;51644;51.068;5.860;2023-05-31T00:57:36;15.60;67.94
65058;HTU21D;51644;51.068;5.860;2023-05-31T00:58:37;15.57;68.00
65058;HTU21D;51644;51.068;5.860;2023-05-31T00:59:37;15.57;68.08
65058;HTU21D;51644;51.068;5.860;2023-05-31T01:00:36;15.55;68.13
65058;HTU21D;51644;51.068;5.860;2023-05-31T01:01:34;15.56;68.21
65058;HTU21D;51644;51.068;5.860;2023-05-31T01:02:34;15.55;68.28
65058;HTU21D;51644;51.068;5.860;2023-05-31T01:03:37;15.52;68.33
65058;HTU21D;51644;51.068;5.860;2023-05-31T01:04:35;15.53;68.38
65058;HTU21D;51644;51.068;5.860;2023-05-31T01:05:35;15.51;68.42
65058;HTU21D;51644;51.068;5.860;2023-05-31T01:06:34;15.51;68.46
65058;HTU21D;51644;51.068;5.860;2023-05-31T01:07:33;15.49;68.53
65058;HTU21D;51644;51.068;5.860;2023-05-31T01:08:32;15.48;68.54
65058;HTU21D;51644;51.068;5.860;2023-05-31T01:09:31;15.48;68.52
65058;HTU21D;51644;51.068;5.860;2023-05-31T01:10:30;15.47;68.52
65058;HTU21D;51644;51.068;5.860;2023-05-31T01:15:23;15.43;68.75
65058;HTU21D;51644;51.068;5.860;2023-05-31T01:16:31;15.40;68.81
65058;HTU21D;51644;51.068;5.860;2023-05-31T01:19:52;15.36;69.13
65058;HTU21D;51644;51.068;5.860;2023-05-31T01:20:52;15.36;69.17
65058;HTU21D;51644;51.068;5.860;2023-05-31T01:26:50;15.29;69.31
65058;HTU21D;51644;51.068;5.860;2023-05-31T01:27:51;15.29;69.37
65058;HTU21D;51644;51.068;5.860;2023-05-31T01:28:55;15.28;69.36
65058;HTU21D;51644;51.068;5.860;2023-05-31T01:29:58;15.26;69.44
65058;HTU21D;51644;51.068;5.860;2023-05-31T01:31:01;15.23;69.54
65058;HTU21D;51644;51.068;5.860;2023-05-31T01:32:02;15.23;69.60
65058;HTU21D;51644;51.068;5.860;2023-05-31T01:33:08;15.22;69.68
65058;HTU21D;51644;51.068;5.860;2023-05-31T01:34:08;15.21;69.79
65058;HTU21D;51644;51.068;5.860;2023-05-31T01:35:08;15.21;69.82
65058;HTU21D;51644;51.068;5.860;2023-05-31T01:36:06;15.18;69.85
65058;HTU21D;51644;51.068;5.860;2023-05-31T01:37:05;15.19;69.87
65058;HTU21D;51644;51.068;5.860;2023-05-31T01:38:04;15.17;69.96
65058;HTU21D;51644;51.068;5.860;2023-05-31T01:39:04;15.18;69.92
65058;HTU21D;51644;51.068;5.860;2023-05-31T01:40:04;15.15;69.97
65058;HTU21D;51644;51.068;5.860;2023-05-31T01:41:04;15.14;70.04
65058;HTU21D;51644;51.068;5.860;2023-05-31T01:42:08;15.11;70.09
65058;HTU21D;51644;51.068;5.860;2023-05-31T01:43:09;15.11;70.13
65058;HTU21D;51644;51.068;5.860;2023-05-31T01:44:13;15.08;70.23
65058;HTU21D;51644;51.068;5.860;2023-05-31T01:45:14;15.06;70.35
65058;HTU21D;51644;51.068;5.860;2023-05-31T01:46:15;15.07;70.47
65058;HTU21D;51644;51.068;5.860;2023-05-31T01:47:15;15.06;70.55
65058;HTU21D;51644;51.068;5.860;2023-05-31T01:48:15;15.04;70.53
65058;HTU21D;51644;51.068;5.860;2023-05-31T01:49:14;15.03;70.53
65058;HTU21D;51644;51.068;5.860;2023-05-31T01:50:13;15.01;70.58
65058;HTU21D;51644;51.068;5.860;2023-05-31T01:51:14;14.99;70.60
65058;HTU21D;51644;51.068;5.860;2023-05-31T01:52:15;15.01;70.63
65058;HTU21D;51644;51.068;5.860;2023-05-31T01:53:18;15.00;70.67
65058;HTU21D;51644;51.068;5.860;2023-05-31T01:54:17;14.99;70.71
65058;HTU21D;51644;51.068;5.860;2023-05-31T01:55:16;14.99;70.71
65058;HTU21D;51644;51.068;5.860;2023-05-31T01:56:16;14.98;70.68
65058;HTU21D;51644;51.068;5.860;2023-05-31T01:57:17;14.98;70.69
65058;HTU21D;51644;51.068;5.860;2023-05-31T01:58:17;14.97;70.70
65058;HTU21D;51644;51.068;5.860;2023-05-31T01:59:17;14.96;70.65
65058;HTU21D;51644;51.068;5.860;2023-05-31T02:00:16;14.96;70.68
65058;HTU21D;51644;51.068;5.860;2023-05-31T02:01:20;14.96;70.70
65058;HTU21D;51644;51.068;5.860;2023-05-31T02:02:20;14.96;70.64
65058;HTU21D;51644;51.068;5.860;2023-05-31T02:03:19;14.93;70.68
65058;HTU21D;51644;51.068;5.860;2023-05-31T02:04:18;14.93;70.71
65058;HTU21D;51644;51.068;5.860;2023-05-31T02:05:18;14.89;70.78
65058;HTU21D;51644;51.068;5.860;2023-05-31T02:06:19;14.89;70.81
65058;HTU21D;51644;51.068;5.860;2023-05-31T02:07:19;14.87;70.81
65058;HTU21D;51644;51.068;5.860;2023-05-31T02:08:19;14.86;70.78
65058;HTU21D;51644;51.068;5.860;2023-05-31T02:09:20;14.85;70.81
65058;HTU21D;51644;51.068;5.860;2023-05-31T02:10:18;14.84;70.85
65058;HTU21D;51644;51.068;5.860;2023-05-31T02:11:17;14.81;70.89
65058;HTU21D;51644;51.068;5.860;2023-05-31T02:12:16;14.80;70.99
65058;HTU21D;51644;51.068;5.860;2023-05-31T02:13:14;14.80;71.06
65058;HTU21D;51644;51.068;5.860;2023-05-31T02:14:13;14.78;71.13
65058;HTU21D;51644;51.068;5.860;2023-05-31T02:15:11;14.77;71.15
65058;HTU21D;51644;51.068;5.860;2023-05-31T02:16:12;14.77;71.17
65058;HTU21D;51644;51.068;5.860;2023-05-31T02:17:10;14.75;71.23
65058;HTU21D;51644;51.068;5.860;2023-05-31T02:18:13;14.74;71.23
65058;HTU21D;51644;51.068;5.860;2023-05-31T02:19:17;14.72;71.26
65058;HTU21D;51644;51.068;5.860;2023-05-31T02:20:18;14.71;71.35
65058;HTU21D;51644;51.068;5.860;2023-05-31T02:21:16;14.69;71.35
65058;HTU21D;51644;51.068;5.860;2023-05-31T02:22:18;14.69;71.38
65058;HTU21D;51644;51.068;5.860;2023-05-31T02:23:17;14.66;71.48
65058;HTU21D;51644;51.068;5.860;2023-05-31T02:24:16;14.64;71.52
65058;HTU21D;51644;51.068;5.860;2023-05-31T02:25:15;14.64;71.64
65058;HTU21D;51644;51.068;5.860;2023-05-31T02:26:14;14.59;71.71
65058;HTU21D;51644;51.068;5.860;2023-05-31T02:27:14;14.58;71.79
65058;HTU21D;51644;51.068;5.860;2023-05-31T02:28:14;14.57;71.89
65058;HTU21D;51644;51.068;5.860;2023-05-31T02:29:13;14.56;71.88
65058;HTU21D;51644;51.068;5.860;2023-05-31T02:30:12;14.56;71.91
65058;HTU21D;51644;51.068;5.860;2023-05-31T02:31:10;14.54;71.97
65058;HTU21D;51644;51.068;5.860;2023-05-31T02:32:09;14.53;72.06
65058;HTU21D;51644;51.068;5.860;2023-05-31T02:33:08;14.51;72.19
65058;HTU21D;51644;51.068;5.860;2023-05-31T02:34:07;14.49;72.17
65058;HTU21D;51644;51.068;5.860;2023-05-31T02:35:09;14.49;72.24
65058;HTU21D;51644;51.068;5.860;2023-05-31T02:36:09;14.48;72.27
65058;HTU21D;51644;51.068;5.860;2023-05-31T02:37:08;14.47;72.30
65058;HTU21D;51644;51.068;5.860;2023-05-31T02:38:07;14.45;72.41
65058;HTU21D;51644;51.068;5.860;2023-05-31T02:39:06;14.43;72.38
65058;HTU21D;51644;51.068;5.860;2023-05-31T02:40:06;14.41;72.47
65058;HTU21D;51644;51.068;5.860;2023-05-31T02:41:09;14.42;72.54
65058;HTU21D;51644;51.068;5.860;2023-05-31T02:42:10;14.40;72.58
65058;HTU21D;51644;51.068;5.860;2023-05-31T02:43:09;14.40;72.58
65058;HTU21D;51644;51.068;5.860;2023-05-31T02:44:10;14.39;72.60
65058;HTU21D;51644;51.068;5.860;2023-05-31T02:45:10;14.38;72.58
65058;HTU21D;51644;51.068;5.860;2023-05-31T02:46:09;14.39;72.62
65058;HTU21D;51644;51.068;5.860;2023-05-31T02:47:08;14.36;72.68
65058;HTU21D;51644;51.068;5.860;2023-05-31T02:48:07;14.35;72.70
65058;HTU21D;51644;51.068;5.860;2023-05-31T02:49:06;14.36;72.76
65058;HTU21D;51644;51.068;5.860;2023-05-31T02:50:09;14.34;72.83
65058;HTU21D;51644;51.068;5.860;2023-05-31T02:51:14;14.32;72.85
65058;HTU21D;51644;51.068;5.860;2023-05-31T02:52:33;14.29;72.91
65058;HTU21D;51644;51.068;5.860;2023-05-31T02:53:54;14.28;72.90
65058;HTU21D;51644;51.068;5.860;2023-05-31T02:54:56;14.29;72.95
65058;HTU21D;51644;51.068;5.860;2023-05-31T02:55:58;14.28;73.00
65058;HTU21D;51644;51.068;5.860;2023-05-31T02:57:16;14.26;73.06
65058;HTU21D;51644;51.068;5.860;2023-05-31T02:58:14;14.26;73.09
65058;HTU21D;51644;51.068;5.860;2023-05-31T02:59:18;14.24;73.15
65058;HTU21D;51644;51.068;5.860;2023-05-31T03:00:44;14.24;73.20
65058;HTU21D;51644;51.068;5.860;2023-05-31T03:01:43;14.24;73.22
65058;HTU21D;51644;51.068;5.860;2023-05-31T03:03:02;14.22;73.28
65058;HTU21D;51644;51.068;5.860;2023-05-31T03:04:24;14.22;73.30
65058;HTU21D;51644;51.068;5.860;2023-05-31T03:05:24;14.22;73.25
65058;HTU21D;51644;51.068;5.860;2023-05-31T03:06:24;14.21;73.32
65058;HTU21D;51644;51.068;5.860;2023-05-31T03:07:23;14.19;73.36
65058;HTU21D;51644;51.068;5.860;2023-05-31T03:08:22;14.19;73.41
65058;HTU21D;51644;51.068;5.860;2023-05-31T03:09:23;14.18;73.39
65058;HTU21D;51644;51.068;5.860;2023-05-31T03:10:21;14.17;73.47
65058;HTU21D;51644;51.068;5.860;2023-05-31T03:11:20;14.15;73.42
65058;HTU21D;51644;51.068;5.860;2023-05-31T03:12:19;14.14;73.51
65058;HTU21D;51644;51.068;5.860;2023-05-31T03:13:19;14.12;73.58
65058;HTU21D;51644;51.068;5.860;2023-05-31T03:14:18;14.11;73.66
65058;HTU21D;51644;51.068;5.860;2023-05-31T03:15:19;14.11;73.73
65058;HTU21D;51644;51.068;5.860;2023-05-31T03:16:18;14.11;73.72
65058;HTU21D;51644;51.068;5.860;2023-05-31T03:17:18;14.11;73.70
65058;HTU21D;51644;51.068;5.860;2023-05-31T03:18:20;14.10;73.86
65058;HTU21D;51644;51.068;5.860;2023-05-31T03:19:20;14.09;73.86
65058;HTU21D;51644;51.068;5.860;2023-05-31T03:20:22;14.08;73.87
65058;HTU21D;51644;51.068;5.860;2023-05-31T03:21:21;14.07;73.94
65058;HTU21D;51644;51.068;5.860;2023-05-31T03:22:26;14.05;73.96
65058;HTU21D;51644;51.068;5.860;2023-05-31T03:23:24;14.05;73.97
65058;HTU21D;51644;51.068;5.860;2023-05-31T03:24:23;14.04;74.06
65058;HTU21D;51644;51.068;5.860;2023-05-31T03:25:22;14.05;74.08
65058;HTU21D;51644;51.068;5.860;2023-05-31T03:26:21;14.06;74.09
65058;HTU21D;51644;51.068;5.860;2023-05-31T03:27:19;14.05;74.09
65058;HTU21D;51644;51.068;5.860;2023-05-31T03:28:18;14.06;74.05
65058;HTU21D;51644;51.068;5.860;2023-05-31T03:29:18;14.05;74.05
65058;HTU21D;51644;51.068;5.860;2023-05-31T03:30:18;14.06;74.07
65058;HTU21D;51644;51.068;5.860;2023-05-31T03:31:24;14.03;74.08
65058;HTU21D;51644;51.068;5.860;2023-05-31T03:32:23;14.01;74.11
65058;HTU21D;51644;51.068;5.860;2023-05-31T03:33:22;14.01;74.14
65058;HTU21D;51644;51.068;5.860;2023-05-31T03:34:21;14.00;74.27
65058;HTU21D;51644;51.068;5.860;2023-05-31T03:35:21;14.01;74.24
65058;HTU21D;51644;51.068;5.860;2023-05-31T03:36:20;13.99;74.20
65058;HTU21D;51644;51.068;5.860;2023-05-31T03:37:18;13.98;74.27
65058;HTU21D;51644;51.068;5.860;2023-05-31T03:38:33;13.97;74.37
65058;HTU21D;51644;51.068;5.860;2023-05-31T03:39:32;13.96;74.45
65058;HTU21D;51644;51.068;5.860;2023-05-31T03:40:31;13.96;74.41
65058;HTU21D;51644;51.068;5.860;2023-05-31T03:41:30;13.97;74.41
65058;HTU21D;51644;51.068;5.860;2023-05-31T03:42:28;13.98;74.36
65058;HTU21D;51644;51.068;5.860;2023-05-31T03:43:29;13.97;74.39
65058;HTU21D;51644;51.068;5.860;2023-05-31T03:44:28;13.97;74.42
65058;HTU21D;51644;51.068;5.860;2023-05-31T03:45:27;13.98;74.42
65058;HTU21D;51644;51.068;5.860;2023-05-31T03:46:26;13.96;74.49
65058;HTU21D;51644;51.068;5.860;2023-05-31T03:47:26;13.96;74.54
65058;HTU21D;51644;51.068;5.860;2023-05-31T03:48:25;13.95;74.53
65058;HTU21D;51644;51.068;5.860;2023-05-31T03:49:26;13.95;74.60
65058;HTU21D;51644;51.068;5.860;2023-05-31T03:50:27;13.97;74.59
65058;HTU21D;51644;51.068;5.860;2023-05-31T03:51:25;13.95;74.64
65058;HTU21D;51644;51.068;5.860;2023-05-31T03:52:24;13.97;74.65
65058;HTU21D;51644;51.068;5.860;2023-05-31T03:53:23;13.97;74.65
65058;HTU21D;51644;51.068;5.860;2023-05-31T03:54:25;13.98;74.64
65058;HTU21D;51644;51.068;5.860;2023-05-31T03:55:24;13.98;74.56
65058;HTU21D;51644;51.068;5.860;2023-05-31T03:56:23;13.98;74.54
65058;HTU21D;51644;51.068;5.860;2023-05-31T03:57:22;13.99;74.47
65058;HTU21D;51644;51.068;5.860;2023-05-31T03:58:21;14.00;74.50
65058;HTU21D;51644;51.068;5.860;2023-05-31T03:59:19;13.99;74.53
65058;HTU21D;51644;51.068;5.860;2023-05-31T04:00:18;14.01;74.53
65058;HTU21D;51644;51.068;5.860;2023-05-31T04:01:22;14.00;74.48
65058;HTU21D;51644;51.068;5.860;2023-05-31T04:02:21;14.01;74.47
65058;HTU21D;51644;51.068;5.860;2023-05-31T04:03:20;14.01;74.52
65058;HTU21D;51644;51.068;5.860;2023-05-31T04:04:22;14.01;74.51
65058;HTU21D;51644;51.068;5.860;2023-05-31T04:05:20;14.01;74.51
65058;HTU21D;51644;51.068;5.860;2023-05-31T04:06:22;14.03;74.52
65058;HTU21D;51644;51.068;5.860;2023-05-31T04:07:20;14.05;74.48
65058;HTU21D;51644;51.068;5.860;2023-05-31T04:08:19;14.05;74.47
65058;HTU21D;51644;51.068;5.860;2023-05-31T04:09:18;14.04;74.50
65058;HTU21D;51644;51.068;5.860;2023-05-31T04:10:23;14.06;74.51
65058;HTU21D;51644;51.068;5.860;2023-05-31T04:11:22;14.06;74.51
65058;HTU21D;51644;51.068;5.860;2023-05-31T04:12:21;14.10;74.41
65058;HTU21D;51644;51.068;5.860;2023-05-31T04:13:20;14.09;74.41
65058;HTU21D;51644;51.068;5.860;2023-05-31T04:14:18;14.09;74.39
65058;HTU21D;51644;51.068;5.860;2023-05-31T04:15:18;14.09;74.48
65058;HTU21D;51644;51.068;5.860;2023-05-31T04:16:16;14.08;74.47
65058;HTU21D;51644;51.068;5.860;2023-05-31T04:17:15;14.09;74.51
65058;HTU21D;51644;51.068;5.860;2023-05-31T04:18:14;14.09;74.57
65058;HTU21D;51644;51.068;5.860;2023-05-31T04:19:12;14.09;74.62
65058;HTU21D;51644;51.068;5.860;2023-05-31T04:20:12;14.10;74.57
65058;HTU21D;51644;51.068;5.860;2023-05-31T04:21:11;14.11;74.60
65058;HTU21D;51644;51.068;5.860;2023-05-31T04:22:09;14.12;74.53
65058;HTU21D;51644;51.068;5.860;2023-05-31T04:23:08;14.12;74.51
65058;HTU21D;51644;51.068;5.860;2023-05-31T04:24:07;14.12;74.54
65058;HTU21D;51644;51.068;5.860;2023-05-31T04:25:06;14.12;74.57
65058;HTU21D;51644;51.068;5.860;2023-05-31T04:26:10;14.14;74.56
65058;HTU21D;51644;51.068;5.860;2023-05-31T04:27:14;14.13;74.53
65058;HTU21D;51644;51.068;5.860;2023-05-31T04:28:17;14.15;74.54
65058;HTU21D;51644;51.068;5.860;2023-05-31T04:29:17;14.18;74.46
65058;HTU21D;51644;51.068;5.860;2023-05-31T04:30:17;14.18;74.41
65058;HTU21D;51644;51.068;5.860;2023-05-31T04:31:16;14.18;74.48
65058;HTU21D;51644;51.068;5.860;2023-05-31T04:32:16;14.17;74.48
65058;HTU21D;51644;51.068;5.860;2023-05-31T04:33:15;14.19;74.54
65058;HTU21D;51644;51.068;5.860;2023-05-31T04:34:15;14.19;74.55
65058;HTU21D;51644;51.068;5.860;2023-05-31T04:35:19;14.20;74.61
65058;HTU21D;51644;51.068;5.860;2023-05-31T04:36:20;14.24;74.51
65058;HTU21D;51644;51.068;5.860;2023-05-31T04:37:20;14.23;74.44
65058;HTU21D;51644;51.068;5.860;2023-05-31T04:38:19;14.25;74.44
65058;HTU21D;51644;51.068;5.860;2023-05-31T04:39:22;14.25;74.44
65058;HTU21D;51644;51.068;5.860;2023-05-31T04:40:22;14.25;74.46
65058;HTU21D;51644;51.068;5.860;2023-05-31T04:41:22;14.26;74.49
65058;HTU21D;51644;51.068;5.860;2023-05-31T04:42:25;14.26;74.53
65058;HTU21D;51644;51.068;5.860;2023-05-31T04:43:24;14.27;74.58
65058;HTU21D;51644;51.068;5.860;2023-05-31T04:44:26;14.29;74.56
65058;HTU21D;51644;51.068;5.860;2023-05-31T04:45:27;14.30;74.55
65058;HTU21D;51644;51.068;5.860;2023-05-31T04:46:26;14.32;74.58
65058;HTU21D;51644;51.068;5.860;2023-05-31T04:47:24;14.33;74.59
65058;HTU21D;51644;51.068;5.860;2023-05-31T04:48:27;14.35;74.50
65058;HTU21D;51644;51.068;5.860;2023-05-31T04:49:26;14.36;74.50
65058;HTU21D;51644;51.068;5.860;2023-05-31T04:50:26;14.37;74.46
65058;HTU21D;51644;51.068;5.860;2023-05-31T04:51:25;14.39;74.41
65058;HTU21D;51644;51.068;5.860;2023-05-31T04:52:26;14.41;74.38
65058;HTU21D;51644;51.068;5.860;2023-05-31T04:53:28;14.41;74.36
65058;HTU21D;51644;51.068;5.860;2023-05-31T04:54:27;14.43;74.38
65058;HTU21D;51644;51.068;5.860;2023-05-31T04:55:25;14.43;74.47
65058;HTU21D;51644;51.068;5.860;2023-05-31T04:56:24;14.45;74.38
65058;HTU21D;51644;51.068;5.860;2023-05-31T04:57:24;14.48;74.37
65058;HTU21D;51644;51.068;5.860;2023-05-31T04:58:23;14.49;74.40
65058;HTU21D;51644;51.068;5.860;2023-05-31T04:59:22;14.50;74.41
65058;HTU21D;51644;51.068;5.860;2023-05-31T05:00:21;14.51;74.34
65058;HTU21D;51644;51.068;5.860;2023-05-31T05:01:42;14.55;74.22
65058;HTU21D;51644;51.068;5.860;2023-05-31T05:02:46;14.54;74.27
65058;HTU21D;51644;51.068;5.860;2023-05-31T05:03:45;14.59;74.13
65058;HTU21D;51644;51.068;5.860;2023-05-31T05:04:45;14.62;74.01
65058;HTU21D;51644;51.068;5.860;2023-05-31T05:05:44;14.62;73.97
65058;HTU21D;51644;51.068;5.860;2023-05-31T05:06:44;14.63;73.98
65058;HTU21D;51644;51.068;5.860;2023-05-31T05:07:43;14.63;73.99
65058;HTU21D;51644;51.068;5.860;2023-05-31T05:08:43;14.65;73.94
65058;HTU21D;51644;51.068;5.860;2023-05-31T05:09:42;14.67;73.90
65058;HTU21D;51644;51.068;5.860;2023-05-31T05:10:41;14.69;73.83
65058;HTU21D;51644;51.068;5.860;2023-05-31T05:11:39;14.71;73.86
65058;HTU21D;51644;51.068;5.860;2023-05-31T05:12:39;14.70;73.85
65058;HTU21D;51644;51.068;5.860;2023-05-31T05:13:38;14.72;73.86
65058;HTU21D;51644;51.068;5.860;2023-05-31T05:14:37;14.74;73.90
65058;HTU21D;51644;51.068;5.860;2023-05-31T05:15:36;14.77;73.90
65058;HTU21D;51644;51.068;5.860;2023-05-31T05:16:34;14.80;73.86
65058;HTU21D;51644;51.068;5.860;2023-05-31T05:17:34;14.85;73.77
65058;HTU21D;51644;51.068;5.860;2023-05-31T05:18:33;14.87;73.65
65058;HTU21D;51644;51.068;5.860;2023-05-31T05:19:32;14.91;73.67
65058;HTU21D;51644;51.068;5.860;2023-05-31T05:20:30;14.91;73.61
65058;HTU21D;51644;51.068;5.860;2023-05-31T05:21:29;14.91;73.57
65058;HTU21D;51644;51.068;5.860;2023-05-31T05:22:29;14.88;73.56
65058;HTU21D;51644;51.068;5.860;2023-05-31T05:23:28;14.88;73.61
65058;HTU21D;51644;51.068;5.860;2023-05-31T05:24:28;14.88;73.73
65058;HTU21D;51644;51.068;5.860;2023-05-31T05:25:27;14.91;73.73
65058;HTU21D;51644;51.068;5.860;2023-05-31T05:26:25;14.93;73.73
65058;HTU21D;51644;51.068;5.860;2023-05-31T05:27:24;14.96;73.70
65058;HTU21D;51644;51.068;5.860;2023-05-31T05:28:23;14.98;73.76
65058;HTU21D;51644;51.068;5.860;2023-05-31T05:29:23;14.98;73.77
65058;HTU21D;51644;51.068;5.860;2023-05-31T05:30:21;15.02;73.76
65058;HTU21D;51644;51.068;5.860;2023-05-31T05:31:21;15.08;73.60
65058;HTU21D;51644;51.068;5.860;2023-05-31T05:32:20;15.11;73.47
65058;HTU21D;51644;51.068;5.860;2023-05-31T05:33:18;15.13;73.38
65058;HTU21D;51644;51.068;5.860;2023-05-31T05:34:18;15.14;73.34
65058;HTU21D;51644;51.068;5.860;2023-05-31T05:35:18;15.17;73.35
65058;HTU21D;51644;51.068;5.860;2023-05-31T05:36:17;15.22;73.31
65058;HTU21D;51644;51.068;5.860;2023-05-31T05:37:23;15.24;73.25
65058;HTU21D;51644;51.068;5.860;2023-05-31T05:38:21;15.25;73.10
65058;HTU21D;51644;51.068;5.860;2023-05-31T05:39:20;15.27;73.10
65058;HTU21D;51644;51.068;5.860;2023-05-31T05:40:20;15.30;73.13
65058;HTU21D;51644;51.068;5.860;2023-05-31T05:41:18;15.33;73.14
65058;HTU21D;51644;51.068;5.860;2023-05-31T05:42:17;15.36;73.09
65058;HTU21D;51644;51.068;5.860;2023-05-31T05:43:15;15.39;73.06
65058;HTU21D;51644;51.068;5.860;2023-05-31T05:44:29;15.40;72.89
65058;HTU21D;51644;51.068;5.860;2023-05-31T05:45:28;15.42;72.77
65058;HTU21D;51644;51.068;5.860;2023-05-31T05:46:26;15.46;72.83
65058;HTU21D;51644;51.068;5.860;2023-05-31T05:47:25;15.51;72.78
65058;HTU21D;51644;51.068;5.860;2023-05-31T05:48:25;15.52;72.75
65058;HTU21D;51644;51.068;5.860;2023-05-31T05:49:25;15.56;72.74
65058;HTU21D;51644;51.068;5.860;2023-05-31T05:50:24;15.62;72.51
65058;HTU21D;51644;51.068;5.860;2023-05-31T05:51:23;15.65;72.30
65058;HTU21D;51644;51.068;5.860;2023-05-31T05:52:21;15.67;72.18
65058;HTU21D;51644;51.068;5.860;2023-05-31T05:53:20;15.68;72.14
65058;HTU21D;51644;51.068;5.860;2023-05-31T05:54:19;15.68;72.10
65058;HTU21D;51644;51.068;5.860;2023-05-31T05:55:18;15.71;72.03
65058;HTU21D;51644;51.068;5.860;2023-05-31T05:56:18;15.72;71.93
65058;HTU21D;51644;51.068;5.860;2023-05-31T05:57:24;15.74;71.94
65058;HTU21D;51644;51.068;5.860;2023-05-31T05:58:26;15.77;71.92
65058;HTU21D;51644;51.068;5.860;2023-05-31T05:59:46;15.85;71.72
65058;HTU21D;51644;51.068;5.860;2023-05-31T06:00:52;15.90;71.47
65058;HTU21D;51644;51.068;5.860;2023-05-31T06:01:51;15.91;71.44
65058;HTU21D;51644;51.068;5.860;2023-05-31T06:02:51;15.93;71.27
65058;HTU21D;51644;51.068;5.860;2023-05-31T06:03:50;15.98;71.18
65058;HTU21D;51644;51.068;5.860;2023-05-31T06:04:49;15.99;70.84
65058;HTU21D;51644;51.068;5.860;2023-05-31T06:05:48;16.02;70.99
65058;HTU21D;51644;51.068;5.860;2023-05-31T06:06:47;16.08;70.81
65058;HTU21D;51644;51.068;5.860;2023-05-31T06:07:47;16.13;70.77
65058;HTU21D;51644;51.068;5.860;2023-05-31T06:08:46;16.17;70.57
65058;HTU21D;51644;51.068;5.860;2023-05-31T06:09:45;16.21;70.52
65058;HTU21D;51644;51.068;5.860;2023-05-31T06:10:44;16.29;70.29
65058;HTU21D;51644;51.068;5.860;2023-05-31T06:11:43;16.33;70.22
65058;HTU21D;51644;51.068;5.860;2023-05-31T06:12:42;16.36;70.04
65058;HTU21D;51644;51.068;5.860;2023-05-31T06:13:42;16.41;69.96
65058;HTU21D;51644;51.068;5.860;2023-05-31T06:14:42;16.48;69.71
65058;HTU21D;51644;51.068;5.860;2023-05-31T06:15:41;16.51;69.61
65058;HTU21D;51644;51.068;5.860;2023-05-31T06:16:43;16.57;69.52
65058;HTU21D;51644;51.068;5.860;2023-05-31T06:17:43;16.63;69.36
65058;HTU21D;51644;51.068;5.860;2023-05-31T06:18:41;16.66;69.19
65058;HTU21D;51644;51.068;5.860;2023-05-31T06:19:40;16.72;69.13
65058;HTU21D;51644;51.068;5.860;2023-05-31T06:20:40;16.82;68.91
65058;HTU21D;51644;51.068;5.860;2023-05-31T06:21:39;16.86;68.68
65058;HTU21D;51644;51.068;5.860;2023-05-31T06:22:53;16.95;68.36
65058;HTU21D;51644;51.068;5.860;2023-05-31T06:23:54;17.09;67.89
65058;HTU21D;51644;51.068;5.860;2023-05-31T06:24:53;17.37;67.14
65058;HTU21D;51644;51.068;5.860;2023-05-31T06:25:52;17.78;65.73